createdAt,value
2023-05-14T00:00:37.308Z,6.90
2023-05-14T00:06:00.686Z,5.90
2023-05-14T00:11:04.204Z,7.00
2023-05-14T00:16:07.710Z,6.30
2023-05-14T00:21:11.336Z,5.70
2023-05-14T00:26:14.855Z,6.30
2023-05-14T00:31:18.428Z,6.10
2023-05-14T00:36:21.995Z,6.40
2023-05-14T00:41:25.514Z,6.80
2023-05-14T00:46:29.055Z,7.00
2023-05-14T00:51:32.638Z,6.00
2023-05-14T00:56:36.359Z,5.90
2023-05-14T01:01:40.292Z,5.30
2023-05-14T01:06:52.809Z,5.90
2023-05-14T01:12:11.581Z,6.00
2023-05-14T01:17:20.273Z,5.50
2023-05-14T01:22:23.630Z,6.50
2023-05-14T01:27:47.219Z,6.50
2023-05-14T01:32:54.979Z,6.00
2023-05-14T01:38:01.451Z,5.90
2023-05-14T01:43:05.588Z,5.90
2023-05-14T01:53:12.776Z,5.30
2023-05-14T01:58:16.294Z,6.90
2023-05-14T02:03:19.708Z,5.70
2023-05-14T02:08:23.220Z,6.50
2023-05-14T02:13:27.247Z,6.80
2023-05-14T02:18:30.792Z,7.00
2023-05-14T02:23:41.477Z,6.00
2023-05-14T02:28:46.201Z,6.80
2023-05-14T02:33:49.709Z,7.30
2023-05-14T02:38:53.328Z,4.90
2023-05-14T02:43:56.947Z,7.30
2023-05-14T02:49:00.469Z,5.60
2023-05-14T02:54:04.183Z,5.80
2023-05-14T02:59:07.700Z,6.00
2023-05-14T03:04:11.728Z,5.80
2023-05-14T03:09:15.243Z,5.80
2023-05-14T03:14:18.761Z,5.20
2023-05-14T03:19:22.276Z,6.50
2023-05-14T03:24:25.860Z,5.70
2023-05-14T03:29:29.814Z,5.80
2023-05-14T03:34:33.434Z,5.40
2023-05-14T03:39:37.261Z,5.70
2023-05-14T03:44:40.989Z,5.80
2023-05-14T03:49:44.288Z,5.10
2023-05-14T03:54:47.804Z,5.40
2023-05-14T03:59:51.366Z,5.50
2023-05-14T04:04:54.877Z,5.40
2023-05-14T04:09:58.453Z,5.30
2023-05-14T04:15:01.869Z,5.40
2023-05-14T04:20:06.204Z,5.60
2023-05-14T04:30:13.773Z,5.40
2023-05-14T04:35:17.061Z,5.20
2023-05-14T04:40:20.781Z,5.30
2023-05-14T04:45:24.387Z,8.40
2023-05-14T04:50:29.334Z,13.90
2023-05-14T04:55:32.753Z,6.40
2023-05-14T05:00:36.260Z,5.40
2023-05-14T05:05:39.685Z,5.30
2023-05-14T05:10:43.208Z,4.80
2023-05-14T05:15:46.642Z,6.10
2023-05-14T05:20:50.266Z,5.80
2023-05-14T05:25:53.849Z,4.80
2023-05-14T05:30:57.396Z,4.10
2023-05-14T05:36:01.189Z,4.50
2023-05-14T05:41:04.704Z,5.10
2023-05-14T05:46:08.385Z,4.30
2023-05-14T05:51:12.241Z,4.30
2023-05-14T05:56:15.656Z,4.30
2023-05-14T06:01:19.174Z,4.90
2023-05-14T06:06:22.588Z,4.60
2023-05-14T06:11:26.923Z,4.30
2023-05-14T06:16:30.606Z,3.90
2023-05-14T06:21:34.568Z,4.90
2023-05-14T06:26:38.181Z,5.10
2023-05-14T06:31:41.631Z,4.10
2023-05-14T06:36:45.420Z,4.50
2023-05-14T06:46:52.372Z,3.00
2023-05-14T06:51:55.861Z,3.90
2023-05-14T06:56:59.480Z,3.50
2023-05-14T07:02:03.513Z,3.40
2023-05-14T07:07:07.136Z,3.40
2023-05-14T07:17:14.215Z,3.60
2023-05-14T07:22:17.781Z,2.80
2023-05-14T07:27:21.398Z,2.60
2023-05-14T07:32:25.658Z,2.30
2023-05-14T07:37:29.144Z,2.80
2023-05-14T07:47:41.322Z,2.40
2023-05-14T07:52:45.628Z,2.60
2023-05-14T07:57:49.245Z,2.20
2023-05-14T08:02:52.872Z,2.10
2023-05-14T08:07:56.590Z,2.70
2023-05-14T08:18:04.102Z,4.40
2023-05-14T08:23:07.749Z,3.80
2023-05-14T08:28:11.263Z,2.40
2023-05-14T08:33:14.777Z,1.60
2023-05-14T08:38:18.195Z,2.10
2023-05-14T08:43:26.240Z,2.40
2023-05-14T08:48:33.681Z,2.10
2023-05-14T08:53:38.671Z,3.30
2023-05-14T08:58:42.188Z,1.30
2023-05-14T09:03:47.142Z,1.20
2023-05-14T09:08:50.756Z,1.40
2023-05-14T09:13:54.172Z,1.70
2023-05-14T09:18:58.561Z,1.50
2023-05-14T09:24:02.013Z,1.40
2023-05-14T09:29:05.425Z,1.30
2023-05-14T09:34:08.940Z,1.20
2023-05-14T09:39:12.361Z,1.20
2023-05-14T09:44:15.975Z,1.30
2023-05-14T09:49:20.308Z,1.50
2023-05-14T09:54:25.612Z,1.60
2023-05-14T09:59:29.079Z,1.20
2023-05-14T10:04:34.483Z,1.70
2023-05-14T10:09:41.948Z,1.00
2023-05-14T10:14:53.915Z,1.30
2023-05-14T10:20:00.218Z,1.40
2023-05-14T10:25:04.615Z,2.00
2023-05-14T10:30:13.034Z,1.80
2023-05-14T10:35:25.635Z,1.70
2023-05-14T10:40:28.946Z,1.10
2023-05-14T10:45:34.613Z,2.10
2023-05-14T10:50:38.846Z,1.60
2023-05-14T10:55:43.489Z,1.60
2023-05-14T11:00:50.197Z,1.10
2023-05-14T11:05:55.954Z,1.20
2023-05-14T11:11:00.589Z,1.60
2023-05-14T11:21:13.496Z,1.50
2023-05-14T11:26:18.815Z,1.50
2023-05-14T11:31:24.517Z,1.00
2023-05-14T11:36:27.794Z,1.40
2023-05-14T11:41:31.736Z,1.50
2023-05-14T11:46:35.353Z,1.50
2023-05-14T11:51:38.958Z,5.00
2023-05-14T11:56:42.471Z,2.10
2023-05-14T12:01:48.509Z,1.20
2023-05-14T12:06:53.492Z,1.10
2023-05-14T12:11:57.008Z,1.30
2023-05-14T12:17:02.265Z,1.40
2023-05-14T12:22:06.238Z,1.50
2023-05-14T12:27:11.452Z,1.90
2023-05-14T12:32:15.265Z,2.10
2023-05-14T12:37:18.888Z,1.70
2023-05-14T12:42:22.610Z,1.40
2023-05-14T12:47:26.233Z,1.40
2023-05-14T12:57:36.846Z,2.30
2023-05-14T13:02:42.986Z,1.60
2023-05-14T13:07:47.148Z,1.10
2023-05-14T13:12:51.075Z,0.90
2023-05-14T13:17:54.545Z,1.50
2023-05-14T13:22:58.515Z,1.20
2023-05-14T13:28:02.212Z,1.20
2023-05-14T13:33:06.204Z,1.30
2023-05-14T13:38:09.681Z,1.00
2023-05-14T13:43:13.190Z,1.00
2023-05-14T13:48:16.671Z,1.30
2023-05-14T13:53:21.870Z,1.30
2023-05-14T13:58:26.194Z,1.10
2023-05-14T14:03:29.811Z,1.00
2023-05-14T14:08:33.139Z,1.00
2023-05-14T14:13:37.564Z,0.70
2023-05-14T14:18:41.716Z,0.80
2023-05-14T14:23:48.484Z,1.00
2023-05-14T14:28:51.999Z,2.00
2023-05-14T14:33:55.417Z,4.50
2023-05-14T14:38:58.930Z,8.50
2023-05-14T14:44:03.162Z,16.60
2023-05-14T14:49:06.484Z,15.00
2023-05-14T14:54:09.884Z,19.40
2023-05-14T14:59:13.299Z,24.40
2023-05-14T15:04:16.710Z,29.70
2023-05-14T15:09:20.126Z,32.90
2023-05-14T15:14:23.649Z,29.20
2023-05-14T15:19:27.158Z,24.20
2023-05-14T15:24:30.675Z,12.50
2023-05-14T15:29:34.193Z,12.00
2023-05-14T15:34:37.704Z,11.10
2023-05-14T15:39:41.117Z,11.30
2023-05-14T15:44:44.755Z,12.30
2023-05-14T15:49:48.150Z,11.80
2023-05-14T15:54:52.378Z,9.50
2023-05-14T15:59:57.125Z,6.40
2023-05-14T16:05:00.752Z,6.20
2023-05-14T16:10:05.120Z,4.70
2023-05-14T16:15:09.458Z,3.10
2023-05-14T16:20:13.130Z,2.80
2023-05-14T16:25:18.904Z,3.20
2023-05-14T16:30:22.534Z,2.60
2023-05-14T16:35:26.135Z,2.10
2023-05-14T16:40:29.683Z,1.80
2023-05-14T16:45:35.105Z,1.70
2023-05-14T16:50:38.518Z,1.10
2023-05-14T16:55:41.934Z,1.90
2023-05-14T17:00:45.441Z,1.30
2023-05-14T17:05:48.954Z,3.10
2023-05-14T17:10:52.369Z,2.40
2023-05-14T17:15:56.240Z,1.20
2023-05-14T17:21:00.224Z,6.10
2023-05-14T17:26:03.866Z,1.20
2023-05-14T17:31:07.538Z,1.10
2023-05-14T17:36:11.377Z,1.40
2023-05-14T17:41:14.691Z,1.50
2023-05-14T17:46:18.633Z,1.20
2023-05-14T17:51:22.339Z,1.40
2023-05-14T17:56:26.269Z,6.40
2023-05-14T18:01:29.860Z,2.50
2023-05-14T18:06:33.409Z,1.40
2023-05-14T18:11:37.134Z,1.60
2023-05-14T18:16:40.908Z,2.20
2023-05-14T18:21:46.884Z,2.00
2023-05-14T18:26:50.768Z,2.20
2023-05-14T18:31:54.283Z,2.80
2023-05-14T18:36:58.654Z,1.90
2023-05-14T18:42:02.026Z,3.60
2023-05-14T18:47:06.251Z,4.30
2023-05-14T18:52:09.660Z,3.00
2023-05-14T18:57:14.100Z,3.50
2023-05-14T19:02:17.503Z,3.20
2023-05-14T19:07:22.089Z,3.70
2023-05-14T19:12:25.681Z,4.60
2023-05-14T19:22:32.914Z,5.10
2023-05-14T19:27:38.159Z,6.80
2023-05-14T19:32:41.638Z,6.50
2023-05-14T19:37:46.431Z,7.00
2023-05-14T19:42:50.460Z,10.10
2023-05-14T19:52:57.989Z,5.80
2023-05-14T19:58:01.715Z,5.40
2023-05-14T20:03:06.081Z,4.40
2023-05-14T20:08:09.772Z,4.60
2023-05-14T20:13:13.178Z,4.20
2023-05-14T20:18:18.243Z,3.80
2023-05-14T20:23:21.598Z,3.70
2023-05-14T20:28:25.262Z,4.50
2023-05-14T20:33:29.395Z,4.70
2023-05-14T20:43:40.215Z,5.60
2023-05-14T20:48:43.898Z,6.30
2023-05-14T20:53:49.073Z,5.50
2023-05-14T20:58:52.714Z,6.20
2023-05-14T21:03:56.323Z,5.10
2023-05-14T21:09:00.052Z,5.00
2023-05-14T21:14:03.981Z,3.60
2023-05-14T21:19:07.443Z,3.50
2023-05-14T21:24:11.008Z,4.90
2023-05-14T21:29:14.516Z,5.10
2023-05-14T21:34:18.030Z,4.40
2023-05-14T21:39:21.444Z,3.40
2023-05-14T21:44:24.862Z,4.00
2023-05-14T21:49:28.274Z,4.00
2023-05-14T21:54:31.888Z,4.60
2023-05-14T21:59:35.707Z,4.00
2023-05-14T22:04:39.224Z,4.50
2023-05-14T22:09:42.745Z,5.10
2023-05-14T22:14:52.214Z,4.30
2023-05-14T22:19:55.727Z,3.20
2023-05-14T22:24:59.123Z,3.80
2023-05-14T22:30:02.749Z,4.50
2023-05-14T22:35:06.667Z,4.60
2023-05-14T22:40:10.589Z,4.40
2023-05-14T22:45:14.311Z,4.20
2023-05-14T22:50:17.933Z,4.00
2023-05-14T22:55:23.070Z,3.80
2023-05-14T23:00:26.602Z,4.10
2023-05-14T23:05:30.325Z,4.30
2023-05-14T23:10:35.769Z,3.90
2023-05-14T23:15:39.194Z,3.90
2023-05-14T23:20:42.722Z,4.20
2023-05-14T23:25:46.226Z,4.30
2023-05-14T23:30:49.951Z,4.10
2023-05-14T23:35:53.672Z,4.80
2023-05-14T23:40:57.081Z,4.40
2023-05-14T23:46:01.217Z,4.60
2023-05-14T23:51:04.822Z,4.50
2023-05-14T23:56:09.260Z,4.60
